Time;durP1;ratioP1;P1;durP2;ratioP2;P2;SDS_P1;SDS_P2;PMS_P1;PMS_P2;Temp;Humidity;BMP_temperature;BMP_pressure;BME280_temperature;BME280_humidity;BME280_pressure;Samples;Min_cycle;Max_cycle;Signal;HPM_P1;HPM_P2
2023/01/21 00:01:03;;;;;;;0.00;0.00;;;;;;;9.55;48.34;94544.72;4996196;28;20182;-69
2023/01/21 00:03:30;;;;;;;0.00;0.00;;;;;;;9.71;47.37;94548.94;4990403;28;20645;-69
2023/01/21 00:05:57;;;;;;;0.00;0.00;;;;;;;9.77;47.96;94551.31;4976845;28;20290;-62
2023/01/21 00:08:25;;;;;;;0.20;0.20;;;;;;;9.55;48.12;94545.50;4990581;28;20624;-70
2023/01/21 00:10:52;;;;;;;0.30;0.30;;;;;;;9.76;47.77;94538.50;4989852;28;20674;-67
2023/01/21 00:13:19;;;;;;;2.78;1.73;;;;;;;9.80;47.96;94542.94;4990375;28;20612;-67
2023/01/21 00:15:46;;;;;;;0.85;0.22;;;;;;;9.19;48.41;94551.63;4990169;28;20241;-64
2023/01/21 00:18:13;;;;;;;0.30;0.30;;;;;;;9.17;48.75;94559.75;4989912;28;20677;-68
2023/01/21 00:20:40;;;;;;;0.85;0.63;;;;;;;9.36;47.89;94554.06;4989583;28;20651;-63
2023/01/21 00:23:09;;;;;;;0.45;0.45;;;;;;;9.49;47.90;94550.97;4990239;28;20214;-69
2023/01/21 00:25:36;;;;;;;0.10;0.10;;;;;;;9.71;47.64;94554.97;4989862;28;20293;-68
2023/01/21 00:28:03;;;;;;;0.40;0.40;;;;;;;9.49;47.93;94536.06;4989928;28;20264;-66
2023/01/21 00:30:30;;;;;;;0.30;0.30;;;;;;;9.67;47.88;94532.22;4989527;28;20673;-66
2023/01/21 00:32:57;;;;;;;0.00;0.00;;;;;;;9.74;47.51;94536.16;4989093;28;20648;-66
2023/01/21 00:35:23;;;;;;;1.20;1.10;;;;;;;9.78;48.17;94544.28;4989278;28;20592;-63
2023/01/21 00:37:51;;;;;;;1.90;1.10;;;;;;;9.51;48.10;94554.09;4989615;28;20604;-66
2023/01/21 00:40:18;;;;;;;0.30;0.30;;;;;;;9.74;47.61;94558.91;4989946;28;20190;-68
2023/01/21 00:42:45;;;;;;;0.10;0.10;;;;;;;9.56;48.74;94541.06;4989872;28;20194;-67
2023/01/21 00:45:12;;;;;;;1.00;0.98;;;;;;;9.23;48.71;94527.34;4989856;28;20203;-69
2023/01/21 00:47:39;;;;;;;0.20;0.20;;;;;;;9.54;48.93;94527.47;4989985;28;20186;-65
2023/01/21 00:50:07;;;;;;;0.82;0.82;;;;;;;9.65;48.07;94526.44;4989485;28;20203;-63
2023/01/21 00:52:34;;;;;;;1.65;0.75;;;;;;;9.55;48.38;94535.03;4989455;28;20191;-63
2023/01/21 00:55:01;;;;;;;0.13;0.13;;;;;;;9.44;48.23;94535.25;4989219;28;20229;-63
2023/01/21 00:57:28;;;;;;;0.03;0.03;;;;;;;9.53;48.66;94531.09;4989353;28;20198;-65
2023/01/21 00:59:55;;;;;;;0.40;0.40;;;;;;;9.71;48.29;94512.31;4989466;28;20265;-63
2023/01/21 01:02:22;;;;;;;0.00;0.00;;;;;;;9.55;48.44;94534.25;4989814;28;20198;-66
2023/01/21 01:04:49;;;;;;;0.08;0.08;;;;;;;9.65;48.40;94540.28;4989282;28;20582;-64
2023/01/21 01:07:15;;;;;;;0.40;0.40;;;;;;;9.72;47.92;94540.06;4989708;28;20204;-64
2023/01/21 01:09:42;;;;;;;2.25;2.05;;;;;;;9.48;48.62;94538.94;4988724;28;20198;-65
2023/01/21 01:12:09;;;;;;;0.00;0.00;;;;;;;9.59;48.73;94537.94;4989692;28;20202;-66
2023/01/21 01:14:36;;;;;;;0.05;0.05;;;;;;;9.80;48.53;94531.69;4989081;28;20225;-62
2023/01/21 01:17:03;;;;;;;5.47;0.82;;;;;;;9.60;48.46;94526.44;4988391;28;20203;-63
2023/01/21 01:19:30;;;;;;;0.30;0.30;;;;;;;9.58;48.89;94525.91;4989191;28;20230;-64
2023/01/21 01:21:57;;;;;;;0.00;0.00;;;;;;;9.74;48.63;94522.28;4988958;28;20202;-67
2023/01/21 01:24:24;;;;;;;0.90;0.38;;;;;;;9.52;48.68;94529.53;4989198;28;20199;-63
2023/01/21 01:26:50;;;;;;;0.03;0.03;;;;;;;9.60;48.90;94531.66;4988593;28;20207;-64
2023/01/21 01:29:17;;;;;;;0.20;0.20;;;;;;;9.49;48.96;94527.44;4989308;28;20210;-65
2023/01/21 01:31:44;;;;;;;0.28;0.28;;;;;;;9.52;48.97;94514.63;4988679;28;20270;-69
2023/01/21 01:34:11;;;;;;;0.50;0.50;;;;;;;9.78;48.05;94518.09;4989064;28;20325;-69
2023/01/21 01:36:38;;;;;;;1.65;0.73;;;;;;;9.64;47.89;94524.84;4988258;28;20234;-66
2023/01/21 01:39:05;;;;;;;0.20;0.20;;;;;;;9.80;47.78;94516.00;4989706;28;20203;-63
2023/01/21 01:41:33;;;;;;;1.02;0.85;;;;;;;9.70;47.76;94500.28;4988814;28;20658;-65
2023/01/21 01:44:03;;;;;;;2.35;2.17;;;;;;;9.89;48.04;94512.59;4990058;28;20653;-62
2023/01/21 01:46:33;;;;;;;0.85;0.85;;;;;;;9.69;47.82;94517.03;4992743;28;20198;-62
2023/01/21 01:49:09;;;;;;;0.82;0.82;;;;;;;9.89;47.96;94501.38;4994589;28;20233;-66
2023/01/21 01:51:47;;;;;;;0.00;0.00;;;;;;;9.97;47.61;94490.38;4982441;28;20213;-64
2023/01/21 01:54:20;;;;;;;0.17;0.17;;;;;;;10.03;47.13;94489.34;4995214;28;20230;-66
2023/01/21 01:56:50;;;;;;;0.20;0.20;;;;;;;9.89;47.27;94472.59;5000376;28;20202;-61
2023/01/21 01:59:18;;;;;;;0.20;0.20;;;;;;;9.90;47.80;94479.38;5001512;28;20198;-66
2023/01/21 02:01:45;;;;;;;0.00;0.00;;;;;;;9.81;48.01;94479.13;5002606;28;20692;-62
2023/01/21 02:04:19;;;;;;;0.22;0.22;;;;;;;9.78;47.77;94461.31;4996976;28;20202;-67
2023/01/21 02:06:47;;;;;;;0.65;0.65;;;;;;;9.77;47.94;94482.50;4994637;28;20241;-61
2023/01/21 02:09:14;;;;;;;0.75;0.57;;;;;;;9.60;48.34;94474.13;4994377;28;20237;-67
2023/01/21 02:11:41;;;;;;;0.38;0.38;;;;;;;9.66;47.85;94484.31;4993495;28;20685;-67
2023/01/21 02:14:08;;;;;;;0.38;0.32;;;;;;;9.49;48.59;94483.00;4990817;28;20569;-64
2023/01/21 02:16:58;;;;;;;0.05;0.05;;;;;;;9.88;47.90;94482.25;4991416;28;20591;-64
2023/01/21 02:19:28;;;;;;;0.38;0.38;;;;;;;9.40;48.38;94447.94;4992321;28;20209;-62
2023/01/21 02:22:09;;;;;;;0.32;0.32;;;;;;;9.22;48.47;94457.00;4991553;28;20743;-64
2023/01/21 02:24:42;;;;;;;0.00;0.00;;;;;;;9.19;48.76;94452.31;4991548;28;20646;-63
2023/01/21 02:27:40;;;;;;;0.75;0.75;;;;;;;9.40;48.68;94442.69;4991830;28;20213;-67
2023/01/21 02:30:25;;;;;;;0.30;0.30;;;;;;;9.41;48.52;94425.97;4991068;28;20194;-66
2023/01/21 02:33:19;;;;;;;0.00;0.00;;;;;;;9.59;48.28;94425.47;4991823;28;20606;-61
2023/01/21 02:36:10;;;;;;;0.00;0.00;;;;;;;9.54;48.54;94425.47;4991821;28;20222;-66
2023/01/21 02:39:13;;;;;;;0.03;0.03;;;;;;;9.41;48.09;94434.59;4991824;28;20282;-68
2023/01/21 02:42:11;;;;;;;0.20;0.20;;;;;;;9.53;48.01;94432.50;4995625;28;20198;-65
2023/01/21 02:44:41;;;;;;;0.10;0.10;;;;;;;9.43;48.04;94421.25;4994280;28;20595;-66
2023/01/21 02:47:25;;;;;;;0.10;0.10;;;;;;;9.42;48.28;94430.13;4991451;28;20199;-65
2023/01/21 02:50:22;;;;;;;0.10;0.10;;;;;;;9.44;47.97;94434.06;4991435;28;20612;-62
2023/01/21 02:53:00;;;;;;;0.20;0.20;;;;;;;9.49;48.23;94435.91;4992844;28;20681;-67
2023/01/21 02:55:35;;;;;;;0.52;0.52;;;;;;;9.53;47.99;94431.72;4990181;28;20569;-67
2023/01/21 02:58:05;;;;;;;3.72;1.65;;;;;;;9.44;48.15;94430.66;4980200;28;20691;-67
2023/01/21 03:00:53;;;;;;;0.75;0.75;;;;;;;9.51;47.45;94420.72;4990827;28;20206;-64
2023/01/21 03:03:22;;;;;;;0.00;0.00;;;;;;;9.25;48.30;94419.94;4993799;28;20300;-64
2023/01/21 03:06:29;;;;;;;1.17;0.75;;;;;;;9.47;47.43;94401.41;4990296;28;20217;-62
2023/01/21 03:09:08;;;;;;;0.00;0.00;;;;;;;9.56;47.14;94397.22;4990926;28;20198;-63
2023/01/21 03:11:36;;;;;;;1.27;0.60;;;;;;;9.30;47.69;94403.44;4990765;28;20332;-65
2023/01/21 03:17:55;;;;;;;0.43;0.32;;;;;;;9.33;47.66;94390.66;4990966;28;20198;-65
2023/01/21 03:20:39;;;;;;;0.20;0.20;;;;;;;9.48;47.51;94397.72;4971205;28;20698;-63
2023/01/21 03:23:11;;;;;;;0.85;0.80;;;;;;;9.31;47.40;94394.56;4990548;28;20214;-66
2023/01/21 03:25:40;;;;;;;0.00;0.00;;;;;;;9.46;47.30;94400.59;4978453;28;20199;-62
2023/01/21 03:28:12;;;;;;;0.10;0.10;;;;;;;9.49;47.34;94389.59;4990179;28;20202;-64
2023/01/21 03:30:44;;;;;;;0.73;0.40;;;;;;;9.42;47.76;94388.28;4989793;28;20242;-66
2023/01/21 03:33:14;;;;;;;11.23;0.63;;;;;;;9.50;47.16;94390.41;4990701;28;20201;-62
2023/01/21 03:35:44;;;;;;;0.90;0.90;;;;;;;9.42;47.45;94377.84;4989318;28;20709;-65
2023/01/21 03:38:29;;;;;;;0.10;0.10;;;;;;;9.47;46.97;94370.00;4990458;28;20213;-67
2023/01/21 03:41:04;;;;;;;0.00;0.00;;;;;;;9.26;47.84;94369.19;4990363;28;20206;-67
2023/01/21 03:43:32;;;;;;;0.30;0.30;;;;;;;9.21;47.77;94372.56;4978546;28;20205;-63
2023/01/21 03:46:23;;;;;;;0.65;0.28;;;;;;;9.33;47.49;94371.56;4989629;28;20226;-65
2023/01/21 03:49:01;;;;;;;0.10;0.10;;;;;;;9.32;47.06;94359.53;4992094;28;20211;-64
2023/01/21 03:51:33;;;;;;;0.00;0.00;;;;;;;9.38;47.36;94350.66;4990103;28;20269;-66
2023/01/21 03:54:01;;;;;;;0.10;0.10;;;;;;;9.27;47.52;94354.31;4990190;28;20288;-64
2023/01/21 03:56:28;;;;;;;0.52;0.52;;;;;;;9.14;47.52;94361.59;4990102;28;20210;-67
2023/01/21 03:58:55;;;;;;;0.00;0.00;;;;;;;9.04;48.34;94358.97;4990436;28;20226;-65
2023/01/21 04:01:22;;;;;;;0.25;0.25;;;;;;;8.99;48.33;94348.50;4990422;28;20201;-65
2023/01/21 04:03:49;;;;;;;1.40;0.75;;;;;;;9.03;48.11;94360.00;4990507;28;20211;-63
2023/01/21 04:06:19;;;;;;;0.28;0.28;;;;;;;9.11;47.61;94362.13;4989475;28;20230;-65
2023/01/21 04:08:46;;;;;;;1.75;1.27;;;;;;;8.97;48.10;94355.81;4989725;28;20199;-65
2023/01/21 04:11:13;;;;;;;0.93;0.93;;;;;;;8.97;48.77;94350.59;4989658;28;20281;-68
2023/01/21 04:13:40;;;;;;;0.20;0.20;;;;;;;9.11;48.04;94364.72;4990085;28;20555;-65
2023/01/21 04:16:07;;;;;;;0.63;0.63;;;;;;;9.07;47.63;94355.84;4989450;28;20253;-62
2023/01/21 04:18:34;;;;;;;0.00;0.00;;;;;;;8.98;48.36;94341.69;4990469;28;20198;-67
2023/01/21 04:21:01;;;;;;;0.00;0.00;;;;;;;8.90;47.87;94347.44;4990557;28;20210;-64
2023/01/21 04:23:28;;;;;;;0.20;0.20;;;;;;;9.02;47.63;94348.00;4989763;28;20202;-64
2023/01/21 04:25:55;;;;;;;1.65;1.30;;;;;;;8.94;48.24;94335.41;4989022;28;20257;-63
2023/01/21 04:28:22;;;;;;;0.22;0.22;;;;;;;8.82;49.00;94327.03;4989636;28;20206;-63
2023/01/21 04:30:49;;;;;;;0.00;0.00;;;;;;;8.89;48.44;94343.25;4988521;28;20240;-66
2023/01/21 04:33:16;;;;;;;0.10;0.10;;;;;;;9.09;48.08;94352.94;4989333;28;20678;-65
2023/01/21 04:35:43;;;;;;;0.32;0.32;;;;;;;9.14;48.29;94363.44;4988349;28;20226;-63
2023/01/21 04:38:10;;;;;;;0.05;0.05;;;;;;;8.95;48.76;94363.13;4987739;28;20291;-66
2023/01/21 04:40:37;;;;;;;0.10;0.10;;;;;;;8.98;48.17;94369.66;4989590;28;20560;-63
2023/01/21 04:43:03;;;;;;;0.40;0.40;;;;;;;8.94;48.54;94364.16;4989242;28;20567;-63
2023/01/21 04:45:30;;;;;;;0.50;0.50;;;;;;;8.79;48.51;94358.13;4987676;28;20214;-66
2023/01/21 04:47:57;;;;;;;0.00;0.00;;;;;;;8.54;49.69;94364.03;4989215;28;20253;-62
2023/01/21 04:50:25;;;;;;;0.52;0.52;;;;;;;8.72;49.49;94368.78;4988719;28;20198;-70
2023/01/21 04:52:51;;;;;;;0.03;0.03;;;;;;;8.80;48.84;94370.91;4989546;28;20187;-65
2023/01/21 04:55:18;;;;;;;0.00;0.00;;;;;;;9.00;48.87;94389.28;4989177;28;20218;-68
2023/01/21 04:57:45;;;;;;;0.00;0.00;;;;;;;9.04;48.63;94394.75;4989571;28;20598;-65
2023/01/21 05:00:12;;;;;;;0.82;0.45;;;;;;;9.03;48.84;94386.13;4989256;28;20659;-65
2023/01/21 05:02:39;;;;;;;0.35;0.35;;;;;;;9.07;48.82;94383.78;4989428;28;20249;-66
2023/01/21 05:05:07;;;;;;;0.00;0.00;;;;;;;8.98;49.16;94390.56;4989171;28;20589;-63
2023/01/21 05:07:33;;;;;;;0.00;0.00;;;;;;;9.13;48.61;94380.94;4989334;28;20191;-62
2023/01/21 05:10:00;;;;;;;0.32;0.32;;;;;;;9.17;48.86;94386.44;4988092;28;21043;-70
2023/01/21 05:12:27;;;;;;;1.55;0.77;;;;;;;9.26;48.78;94381.47;4986645;28;20661;-66
2023/01/21 05:14:56;;;;;;;0.57;0.57;;;;;;;9.28;48.21;94398.47;4976067;28;20306;-65
2023/01/21 05:17:23;;;;;;;0.30;0.30;;;;;;;9.45;48.32;94403.47;4989045;28;20198;-65
2023/01/21 05:19:50;;;;;;;0.00;0.00;;;;;;;9.37;48.48;94412.63;4991871;28;20966;-65
2023/01/21 05:22:17;;;;;;;0.00;0.00;;;;;;;9.38;48.11;94397.72;4992695;28;20816;-64
2023/01/21 05:24:45;;;;;;;1.15;1.08;;;;;;;9.43;48.32;94410.78;4992477;28;20583;-65
2023/01/21 05:27:12;;;;;;;0.20;0.20;;;;;;;9.23;48.97;94405.53;4980448;28;20643;-67
2023/01/21 05:29:39;;;;;;;0.30;0.30;;;;;;;9.37;47.95;94388.28;4992647;28;20230;-66
2023/01/21 05:32:06;;;;;;;0.00;0.00;;;;;;;9.40;48.47;94400.88;4992934;28;20277;-66
2023/01/21 05:34:33;;;;;;;6.82;1.98;;;;;;;9.29;48.09;94423.56;4992117;28;20210;-65
2023/01/21 05:37:00;;;;;;;0.00;0.00;;;;;;;9.33;48.19;94426.44;4992187;28;20197;-64
2023/01/21 05:39:26;;;;;;;0.20;0.20;;;;;;;9.39;48.37;94413.16;4990118;28;20202;-65
2023/01/21 05:41:53;;;;;;;0.13;0.13;;;;;;;9.36;48.39;94418.09;4977559;28;21002;-65
2023/01/21 05:44:20;;;;;;;0.17;0.17;;;;;;;9.42;48.30;94409.22;4993024;28;20194;-66
2023/01/21 05:46:47;;;;;;;0.00;0.00;;;;;;;9.41;48.09;94412.88;4980601;28;20233;-66
2023/01/21 05:49:13;;;;;;;0.30;0.30;;;;;;;9.45;47.80;94413.94;4991867;28;20665;-64
2023/01/21 05:51:40;;;;;;;1.10;0.22;;;;;;;9.48;47.70;94408.19;4990958;28;20195;-65
2023/01/21 05:54:07;;;;;;;1.00;0.85;;;;;;;9.40;48.15;94424.41;4990676;28;20226;-64
2023/01/21 05:56:34;;;;;;;0.50;0.50;;;;;;;9.41;48.18;94428.56;4989209;28;20226;-66
2023/01/21 05:59:01;;;;;;;0.20;0.20;;;;;;;9.53;47.67;94426.47;4990417;28;20615;-67
2023/01/21 06:01:27;;;;;;;0.00;0.00;;;;;;;9.21;48.10;94432.69;4989568;28;20285;-64
2023/01/21 06:03:54;;;;;;;1.55;1.10;;;;;;;8.85;48.49;94420.56;4990576;28;20206;-66
2023/01/21 06:06:21;;;;;;;0.13;0.13;;;;;;;9.36;48.07;94413.66;4990102;28;20224;-66
2023/01/21 06:08:48;;;;;;;0.50;0.50;;;;;;;9.23;48.33;94422.00;4992539;28;20213;-65
2023/01/21 06:11:15;;;;;;;0.00;0.00;;;;;;;9.46;47.59;94420.72;4991941;28;20207;-64
2023/01/21 06:13:42;;;;;;;0.70;0.70;;;;;;;9.45;47.34;94419.16;4992340;28;20191;-65
2023/01/21 06:16:08;;;;;;;0.85;0.60;;;;;;;9.44;47.74;94428.03;4991041;28;20214;-65
2023/01/21 06:18:35;;;;;;;0.13;0.13;;;;;;;9.02;48.32;94431.59;4992503;28;20928;-66
2023/01/21 06:21:02;;;;;;;0.45;0.45;;;;;;;9.30;48.10;94437.44;4991413;28;20289;-65
2023/01/21 06:23:29;;;;;;;3.60;1.30;;;;;;;8.93;49.11;94433.16;4991927;28;20198;-65
2023/01/21 06:26:00;;;;;;;0.75;0.57;;;;;;;8.57;50.11;94441.88;4991283;28;20202;-64
2023/01/21 06:28:28;;;;;;;0.05;0.05;;;;;;;8.99;49.29;94439.19;4991699;28;20573;-64
2023/01/21 06:30:55;;;;;;;0.00;0.00;;;;;;;9.00;49.35;94433.69;4990487;28;20258;-65
2023/01/21 06:33:22;;;;;;;0.70;0.70;;;;;;;8.81;49.51;94443.00;4991822;28;20666;-64
2023/01/21 06:35:49;;;;;;;0.00;0.00;;;;;;;8.91;49.36;94424.78;4991122;28;20250;-64
2023/01/21 06:38:15;;;;;;;0.13;0.13;;;;;;;9.12;49.19;94442.09;4991022;28;20678;-65
2023/01/21 06:40:42;;;;;;;0.25;0.25;;;;;;;9.17;51.70;94454.41;4990918;28;20278;-65
2023/01/21 06:43:09;;;;;;;0.57;0.32;;;;;;;9.45;49.98;94455.78;4991321;28;20209;-64
2023/01/21 06:45:36;;;;;;;0.10;0.10;;;;;;;9.38;49.42;94460.47;4991186;28;20202;-64
2023/01/21 06:48:03;;;;;;;0.40;0.40;;;;;;;9.37;49.63;94448.44;4991428;28;20931;-65
2023/01/21 06:50:30;;;;;;;0.85;0.30;;;;;;;9.39;49.50;94425.44;4991537;28;20656;-65
2023/01/21 06:52:57;;;;;;;0.50;0.43;;;;;;;9.59;48.69;94441.16;4991176;28;20560;-66
2023/01/21 06:55:24;;;;;;;0.15;0.15;;;;;;;9.47;48.87;94458.91;4991042;28;20210;-65
2023/01/21 06:57:50;;;;;;;0.50;0.47;;;;;;;9.14;49.44;94466.13;4991406;28;20210;-65
2023/01/21 07:00:17;;;;;;;0.00;0.00;;;;;;;9.32;48.66;94464.09;4991127;28;20195;-64
2023/01/21 07:02:45;;;;;;;0.00;0.00;;;;;;;9.37;49.04;94487.66;4978815;28;20207;-65
2023/01/21 07:05:13;;;;;;;0.60;0.60;;;;;;;9.19;48.89;94484.47;4991083;28;20206;-67
2023/01/21 07:07:40;;;;;;;4.65;0.68;;;;;;;9.31;49.06;94478.22;4990879;28;20194;-65
2023/01/21 07:10:08;;;;;;;0.10;0.10;;;;;;;9.62;48.72;94474.63;4990595;28;20579;-64
2023/01/21 07:12:35;;;;;;;0.47;0.47;;;;;;;9.67;48.93;94485.13;4990571;28;20202;-65
2023/01/21 07:15:02;;;;;;;2.17;1.10;;;;;;;9.84;48.61;94477.78;4990205;28;20309;-64
2023/01/21 07:17:29;;;;;;;0.35;0.35;;;;;;;9.95;48.56;94476.75;4990904;28;20225;-64
2023/01/21 07:19:55;;;;;;;0.82;0.82;;;;;;;9.93;48.41;94471.78;4990320;28;20202;-65
2023/01/21 07:22:22;;;;;;;1.60;1.50;;;;;;;10.16;47.87;94467.91;4990990;28;20203;-63
2023/01/21 07:24:49;;;;;;;0.00;0.00;;;;;;;10.29;47.93;94480.47;4989827;28;20198;-65
2023/01/21 07:27:16;;;;;;;0.00;0.00;;;;;;;9.91;48.31;94480.94;4990424;28;20198;-65
2023/01/21 07:29:42;;;;;;;0.30;0.30;;;;;;;10.35;47.47;94471.53;4989945;28;20220;-65
2023/01/21 07:32:09;;;;;;;1.45;0.30;;;;;;;10.15;47.58;94476.78;4990085;28;20267;-65
2023/01/21 07:34:36;;;;;;;0.20;0.20;;;;;;;10.20;48.23;94479.41;4990161;28;20237;-64
2023/01/21 07:37:03;;;;;;;0.00;0.00;;;;;;;10.52;48.38;94482.53;4990353;28;20226;-66
2023/01/21 07:39:30;;;;;;;0.05;0.05;;;;;;;10.71;47.80;94480.91;4990702;28;20293;-65
2023/01/21 07:41:56;;;;;;;0.00;0.00;;;;;;;10.80;47.02;94457.59;4990401;28;20549;-67
2023/01/21 07:44:25;;;;;;;0.40;0.40;;;;;;;10.88;46.86;94452.56;4990964;28;20277;-65
2023/01/21 07:46:52;;;;;;;1.08;1.00;;;;;;;10.96;48.19;94452.03;4990360;28;20202;-65
2023/01/21 07:49:19;;;;;;;0.70;0.70;;;;;;;11.07;47.52;94450.94;4989007;28;20569;-65
2023/01/21 07:51:47;;;;;;;0.40;0.40;;;;;;;10.95;46.66;94462.75;4988288;28;20285;-65
2023/01/21 07:54:14;;;;;;;6.03;1.77;;;;;;;11.40;46.18;94464.41;4988991;28;20222;-65
2023/01/21 07:56:41;;;;;;;0.30;0.30;;;;;;;11.69;45.67;94466.13;4983825;28;20834;-66
2023/01/21 07:59:09;;;;;;;0.00;0.00;;;;;;;11.97;46.11;94451.50;4988870;28;20982;-65
2023/01/21 08:01:36;;;;;;;0.10;0.10;;;;;;;12.03;46.28;94445.13;4988402;28;20195;-65
2023/01/21 08:04:03;;;;;;;0.40;0.20;;;;;;;12.09;46.14;94454.53;4989085;28;20205;-65
2023/01/21 08:06:30;;;;;;;0.10;0.10;;;;;;;12.00;45.09;94440.44;4988507;28;20512;-64
2023/01/21 08:08:57;;;;;;;0.10;0.10;;;;;;;12.26;44.73;94441.81;4987721;28;20434;-65
2023/01/21 08:11:23;;;;;;;0.57;0.50;;;;;;;12.35;44.09;94431.47;4988528;28;20496;-63
2023/01/21 08:13:50;;;;;;;0.00;0.00;;;;;;;12.59;43.89;94458.56;4988914;28;20831;-62
2023/01/21 08:16:17;;;;;;;0.77;0.77;;;;;;;12.15;43.54;94474.47;4987689;28;21022;-66
2023/01/21 08:18:44;;;;;;;0.37;0.37;;;;;;;12.31;45.38;94477.75;4989432;28;20458;-66
2023/01/21 08:21:11;;;;;;;0.10;0.10;;;;;;;12.98;43.93;94462.63;4991759;28;20515;-66
2023/01/21 08:23:38;;;;;;;0.00;0.00;;;;;;;13.25;43.43;94442.88;4989465;28;20446;-65
2023/01/21 08:26:06;;;;;;;0.40;0.40;;;;;;;12.46;42.46;94459.22;4993233;28;20438;-61
2023/01/21 08:28:33;;;;;;;0.10;0.10;;;;;;;12.95;41.56;94454.50;4996966;28;20514;-66
2023/01/21 08:31:10;;;;;;;0.70;0.70;;;;;;;13.24;43.61;94460.50;4998702;28;20476;-65
2023/01/21 08:33:38;;;;;;;0.30;0.30;;;;;;;13.79;43.63;94464.25;4992831;28;20994;-70
2023/01/21 08:36:07;;;;;;;4.53;3.57;;;;;;;14.11;43.13;94469.56;4989290;28;20489;-69
2023/01/21 08:38:34;;;;;;;1.50;1.40;;;;;;;14.26;42.79;94461.44;4989398;28;20443;-65
2023/01/21 08:41:01;;;;;;;0.50;0.47;;;;;;;14.39;40.77;94452.81;4988839;28;20528;-64
2023/01/21 08:43:28;;;;;;;1.93;1.50;;;;;;;14.67;40.99;94462.31;4988595;28;20444;-67
2023/01/21 08:45:57;;;;;;;0.00;0.00;;;;;;;13.65;40.28;94466.81;4987584;28;20528;-67
2023/01/21 08:48:24;;;;;;;5.43;1.50;;;;;;;14.19;41.35;94466.28;4988077;28;20453;-63
2023/01/21 08:50:51;;;;;;;0.00;0.00;;;;;;;14.85;40.84;94468.63;4987139;28;20442;-63
2023/01/21 08:53:18;;;;;;;0.27;0.27;;;;;;;14.97;40.52;94467.06;4989984;28;20947;-65
2023/01/21 08:55:44;;;;;;;2.87;2.37;;;;;;;14.80;38.58;94466.84;4994347;28;20918;-68
2023/01/21 08:58:11;;;;;;;10.10;3.23;;;;;;;14.80;39.60;94472.13;4994858;28;20496;-67
2023/01/21 09:00:40;;;;;;;1.43;1.33;;;;;;;15.24;38.05;94471.56;4994320;28;20445;-67
2023/01/21 09:03:07;;;;;;;0.10;0.10;;;;;;;15.09;37.13;94470.00;4994361;28;20437;-67
2023/01/21 09:05:34;;;;;;;0.47;0.40;;;;;;;14.43;38.08;94472.25;4994455;28;20477;-69
2023/01/21 09:08:01;;;;;;;0.10;0.10;;;;;;;14.42;38.61;94481.22;4994308;28;20908;-67
2023/01/21 09:13:15;;;;;;;0.07;0.07;;;;;;;14.14;39.27;94474.28;4994191;28;20449;-68
2023/01/21 09:15:42;;;;;;;0.20;0.20;;;;;;;14.56;37.88;94476.00;4995741;28;20926;-70
2023/01/21 09:18:10;;;;;;;0.00;0.00;;;;;;;14.53;39.10;94461.53;4996165;28;20492;-65
2023/01/21 09:20:38;;;;;;;0.40;0.40;;;;;;;14.91;39.29;94468.22;4996200;28;20964;-71
2023/01/21 09:23:24;;;;;;;2.07;1.77;;;;;;;15.44;39.17;94463.25;4996337;28;20448;-69
2023/01/21 09:26:03;;;;;;;0.30;0.30;;;;;;;15.63;37.87;94452.56;4994173;28;20457;-66
2023/01/21 09:28:32;;;;;;;0.33;0.33;;;;;;;15.70;37.38;94443.16;4996111;28;20445;-75
2023/01/21 09:31:01;;;;;;;0.10;0.10;;;;;;;15.92;37.54;94447.69;4995419;28;20879;-66
2023/01/21 09:33:29;;;;;;;0.83;0.83;;;;;;;14.80;37.34;94461.56;4995873;28;20543;-65
2023/01/21 09:36:19;;;;;;;0.03;0.03;;;;;;;14.73;37.79;94455.91;4994452;28;20492;-73
2023/01/21 09:38:48;;;;;;;0.00;0.00;;;;;;;15.14;37.70;94435.56;4996114;28;20477;-66
2023/01/21 09:41:23;;;;;;;0.10;0.10;;;;;;;15.76;39.86;94441.19;4995884;28;20452;-67
2023/01/21 09:43:57;;;;;;;0.20;0.20;;;;;;;15.28;38.11;94446.13;4996729;28;20952;-70
2023/01/21 09:46:33;;;;;;;0.73;0.60;;;;;;;14.34;38.21;94452.91;4995473;28;20441;-66
2023/01/21 09:49:03;;;;;;;0.10;0.10;;;;;;;14.57;39.32;94430.88;4995394;28;20936;-69
2023/01/21 09:51:48;;;;;;;0.10;0.10;;;;;;;14.15;39.16;94439.72;4982629;28;20501;-71
2023/01/21 09:54:26;;;;;;;0.00;0.00;;;;;;;14.02;39.58;94439.66;4996171;28;20449;-72
2023/01/21 09:57:21;;;;;;;0.00;0.00;;;;;;;14.33;38.91;94430.25;4995321;28;20547;-66
2023/01/21 10:00:04;;;;;;;0.00;0.00;;;;;;;14.31;38.86;94426.31;4994479;28;20495;-68
2023/01/21 10:03:03;;;;;;;0.20;0.20;;;;;;;14.18;40.12;94427.81;4995989;28;20453;-65
2023/01/21 10:05:48;;;;;;;0.03;0.03;;;;;;;14.50;38.90;94427.06;4992740;28;20601;-65
2023/01/21 10:08:22;;;;;;;0.17;0.17;;;;;;;15.05;39.06;94405.69;4979908;28;20504;-71
2023/01/21 10:11:11;;;;;;;0.30;0.30;;;;;;;14.70;37.93;94416.94;4991857;28;20456;-74
2023/01/21 10:13:51;;;;;;;0.00;0.00;;;;;;;14.19;39.21;94419.66;4989853;28;20529;-62
2023/01/21 10:16:43;;;;;;;0.00;0.00;;;;;;;14.76;38.67;94412.34;4991442;28;20485;-66
2023/01/21 10:19:21;;;;;;;0.10;0.10;;;;;;;15.24;38.01;94393.16;4979011;28;20508;-65
2023/01/21 10:21:56;;;;;;;0.10;0.10;;;;;;;15.80;37.02;94389.34;4991297;28;20442;-66
2023/01/21 10:24:28;;;;;;;0.10;0.10;;;;;;;15.97;36.76;94390.22;4989093;28;20456;-64
2023/01/21 10:26:56;;;;;;;0.00;0.00;;;;;;;16.26;36.74;94379.22;4999170;28;20533;-62
2023/01/21 10:29:25;;;;;;;0.00;0.00;;;;;;;16.03;36.27;94382.97;4987179;28;20510;-67
2023/01/21 10:32:05;;;;;;;0.10;0.10;;;;;;;16.29;36.79;94386.56;4993670;28;20904;-65
2023/01/21 10:34:38;;;;;;;0.00;0.00;;;;;;;15.87;36.98;94389.69;4980891;28;20961;-62
2023/01/21 10:37:27;;;;;;;0.40;0.40;;;;;;;15.79;36.81;94393.03;4990766;28;20555;-63
2023/01/21 10:40:41;;;;;;;0.73;0.73;;;;;;;16.20;36.54;94391.00;4981592;28;20461;-65
2023/01/21 10:43:12;;;;;;;0.17;0.17;;;;;;;16.90;35.03;94370.66;4977432;28;20536;-65
2023/01/21 10:46:01;;;;;;;0.10;0.10;;;;;;;15.85;37.73;94376.78;4989349;28;20882;-62
2023/01/21 10:48:40;;;;;;;0.20;0.20;;;;;;;17.12;36.05;94367.91;4984250;28;20533;-65
2023/01/21 10:51:34;;;;;;;0.10;0.10;;;;;;;17.29;34.94;94355.78;4987628;28;20938;-61
2023/01/21 10:54:13;;;;;;;0.07;0.07;;;;;;;16.90;35.36;94351.34;4992254;28;20450;-66
2023/01/21 10:57:07;;;;;;;0.00;0.00;;;;;;;16.34;35.67;94353.91;4992696;28;20925;-62
2023/01/21 10:59:36;;;;;;;0.00;0.00;;;;;;;16.28;37.15;94353.25;4993984;28;20872;-64
2023/01/21 11:02:26;;;;;;;0.20;0.20;;;;;;;14.77;38.15;94361.16;4998234;28;20441;-62
2023/01/21 11:04:57;;;;;;;0.00;0.00;;;;;;;14.04;39.21;94354.03;4989384;28;20532;-62
2023/01/21 11:07:25;;;;;;;0.33;0.33;;;;;;;15.02;38.89;94348.22;4992836;28;20457;-65
2023/01/21 11:09:52;;;;;;;0.50;0.50;;;;;;;15.27;38.22;94342.41;4988922;28;20445;-62
2023/01/21 11:12:20;;;;;;;0.00;0.00;;;;;;;15.87;36.82;94336.84;4989715;28;20555;-65
2023/01/21 11:14:56;;;;;;;0.00;0.00;;;;;;;15.90;36.64;94346.81;4989537;28;20485;-62
2023/01/21 11:17:35;;;;;;;6.03;4.00;;;;;;;16.23;37.24;94340.16;4977653;28;20492;-62
2023/01/21 11:20:22;;;;;;;0.60;0.43;;;;;;;16.79;36.76;94342.91;4987195;28;20453;-67
2023/01/21 11:22:50;;;;;;;0.10;0.10;;;;;;;16.52;36.20;94348.41;4990031;28;20452;-67
2023/01/21 11:25:47;;;;;;;0.10;0.10;;;;;;;17.31;36.61;94353.63;4988917;28;21080;-69
2023/01/21 11:28:40;;;;;;;0.00;0.00;;;;;;;17.37;35.60;94349.75;4991657;28;20486;-64
2023/01/21 11:31:17;;;;;;;0.00;0.00;;;;;;;17.48;35.24;94353.69;4990218;28;21013;-61
2023/01/21 11:33:45;;;;;;;0.00;0.00;;;;;;;17.03;34.59;94343.31;4991863;28;20539;-72
2023/01/21 11:36:17;;;;;;;0.20;0.20;;;;;;;16.84;35.23;94339.38;4991568;28;20458;-69
2023/01/21 11:38:46;;;;;;;0.00;0.00;;;;;;;17.02;35.25;94341.72;4982524;28;20465;-72
2023/01/21 11:41:20;;;;;;;0.20;0.20;;;;;;;15.60;37.80;94339.63;4986230;28;20960;-75
2023/01/21 11:43:49;;;;;;;0.23;0.23;;;;;;;16.62;36.32;94342.88;4981585;28;20454;-75
2023/01/21 11:46:25;;;;;;;0.13;0.13;;;;;;;17.17;36.44;94327.28;4984502;28;20457;-65
2023/01/21 11:49:05;;;;;;;0.10;0.10;;;;;;;17.61;35.76;94321.72;4980329;28;20455;-64
2023/01/21 11:51:39;;;;;;;0.17;0.17;;;;;;;18.06;35.11;94311.53;4975693;28;20461;-66
2023/01/21 11:54:18;;;;;;;0.10;0.10;;;;;;;18.23;35.00;94322.09;4980788;28;20480;-64
2023/01/21 11:56:58;;;;;;;0.10;0.10;;;;;;;18.28;34.58;94318.50;4988010;28;20551;-63
2023/01/21 11:59:34;;;;;;;0.00;0.00;;;;;;;18.33;34.70;94336.88;4984251;28;20463;-64
2023/01/21 12:02:18;;;;;;;2.30;0.63;;;;;;;18.01;34.93;94320.44;4990514;28;20445;-65
2023/01/21 12:04:48;;;;;;;0.00;0.00;;;;;;;18.32;34.57;94322.09;4985109;28;20446;-63